Lamesa, Texas
Current Conditions -  °F | °C
As of 12:15 PM on Sunday 25 Jan 2015 (Local Time) from KGNC Reporting Station
Clear Clear  
Wind Chill: 55°   Ceiling: Unl
Heat Index: 55°   Visibility: 10mi
Dew Point: 24°   Wind: 12mph
Humidity: 30%   Direction: 30°NNE
Pressure: 30.27"   Gusts: 16mph
Location:  32.74°N, 101.95°W
Report Text: KGNC 251815Z AUTO 03010G14KT 010V070 10SM CLR 13/M05 A3027 RMK AO2 T01291046
Loading
Personal Weather Stations






























Interactive Weather Map New forecast layout! Learn more

10-Day Weather Forecast

Advertisements
Track Severe Weather on mobile